Creek Data

    Home     View Charts     View Raw Data     Messages

ID Distance Battery Voltage Battery Current Internal Temp Internal Humidity External Temp Solar Input rssi snr Time Stamp Record
66826 11.4 3.85 0 56 52 50 5.1 -71 8 02/20/2026 03:15 PM 49655
66825 11.4 3.85 0 56 51 51 5.1 -70 8 02/20/2026 03:00 PM 49654
66824 11.4 3.85 0 58 50 51 5.1 -71 7 02/20/2026 02:45 PM 49653
66823 11.5 3.87 0 66 44 52 5.1 -71 8 02/20/2026 02:15 PM 49651
66822 11.5 3.85 0 59 48 51 5.1 -70 8 02/20/2026 02:00 PM 49650
66821 11.4 3.85 0 57 50 50 5.1 -70 8 02/20/2026 01:45 PM 49649
66820 11.4 3.85 0 57 49 50 5.1 -70 8 02/20/2026 01:30 PM 49648
66819 11.4 3.85 0 57 49 53 5.1 -70 8 02/20/2026 01:15 PM 49647
66818 11.4 3.85 0 57 49 51 5.1 -71 7 02/20/2026 01:00 PM 49646
66817 11.4 3.85 0 58 48 51 5.1 -70 8 02/20/2026 12:45 PM 49645
66816 11.4 4.09 0 57 48 52 5.1 -70 8 02/20/2026 12:30 PM 49644
66815 11.4 3.85 0 57 48 53 5.1 -70 8 02/20/2026 12:15 PM 49643
66814 11.5 3.85 0 58 47 51 5.1 -69 8 02/20/2026 12:00 PM 49642
66813 11.5 3.85 0 60 44 50 5.1 -68 8 02/20/2026 11:30 AM 49640
66812 11.5 3.85 0 60 44 51 5.1 -69 8 02/20/2026 11:15 AM 49639
66811 11.5 3.93 0 58 44 52 5.1 -70 8 02/20/2026 11:00 AM 49638
66810 11.6 4.08 0 57 43 54 5.1 -70 8 02/20/2026 10:45 AM 49637
66809 11.5 3.84 0 55 44 52 5.1 -68 8 02/20/2026 10:30 AM 49636
66808 11.5 3.84 0 50 45 50 5.1 -69 8 02/20/2026 10:00 AM 49634
66807 11.6 3.84 0 48 45 51 5.1 -70 8 02/20/2026 09:45 AM 49633
66806 11.5 3.84 0 45 46 50 5.1 -69 8 02/20/2026 09:30 AM 49632
66805 11.5 3.84 0 43 46 47 5.1 -69 8 02/20/2026 09:15 AM 49631
66804 11.4 3.86 0 41 47 46 5.1 -69 8 02/20/2026 09:00 AM 49630
66803 11.3 3.84 0 39 47 44 5.1 -69 8 02/20/2026 08:45 AM 49629
66802 11.3 3.95 0 37 48 43 5.1 -70 8 02/20/2026 08:30 AM 49628